createdAt,value
2018-09-14T00:01:02.326Z,26.23
2018-09-14T00:03:30.996Z,29.07
2018-09-14T00:05:59.913Z,34.17
2018-09-14T00:08:30.323Z,32.90
2018-09-14T00:10:59.145Z,29.30
2018-09-14T00:13:27.921Z,36.83
2018-09-14T00:15:56.578Z,35.90
2018-09-14T00:18:26.592Z,34.83
2018-09-14T00:20:55.311Z,28.90
2018-09-14T00:23:24.309Z,30.80
2018-09-14T00:25:53.002Z,32.27
2018-09-14T00:28:21.741Z,30.23
2018-09-14T00:30:50.622Z,37.53
2018-09-14T00:33:19.310Z,38.43
2018-09-14T00:35:48.346Z,33.93
2018-09-14T00:38:17.077Z,29.43
2018-09-14T00:40:46.367Z,36.27
2018-09-14T00:43:15.349Z,29.33
2018-09-14T00:45:44.296Z,37.03
2018-09-14T00:48:13.510Z,36.47
2018-09-14T00:50:42.669Z,40.00
2018-09-14T00:53:11.362Z,36.77
2018-09-14T00:55:40.509Z,32.33
2018-09-14T00:58:09.216Z,34.20
2018-09-14T01:00:38.178Z,33.47
2018-09-14T01:03:07.026Z,32.77
2018-09-14T01:05:35.759Z,29.97
2018-09-14T01:08:04.425Z,33.50
2018-09-14T01:10:33.175Z,31.27
2018-09-14T01:13:02.243Z,34.63
2018-09-14T01:15:30.993Z,36.50
2018-09-14T01:17:59.630Z,34.53
2018-09-14T01:20:28.300Z,32.10
2018-09-14T01:22:56.942Z,32.90
2018-09-14T01:25:25.882Z,41.07
2018-09-14T01:27:54.649Z,48.03
2018-09-14T01:30:23.417Z,37.27
2018-09-14T01:32:52.374Z,37.00
2018-09-14T01:35:26.359Z,37.23
2018-09-14T01:37:55.450Z,41.80
2018-09-14T01:40:24.194Z,39.30
2018-09-14T01:42:52.915Z,39.17
2018-09-14T01:45:21.589Z,48.43
2018-09-14T01:47:50.246Z,47.77
2018-09-14T01:50:18.995Z,52.07
2018-09-14T01:52:47.742Z,45.10
2018-09-14T01:55:16.534Z,42.13
2018-09-14T01:57:45.218Z,44.30
2018-09-14T02:00:13.985Z,43.97
2018-09-14T02:02:42.721Z,49.90
2018-09-14T02:05:11.350Z,50.00
2018-09-14T02:07:40.173Z,36.50
2018-09-14T02:10:08.897Z,44.90
2018-09-14T02:12:37.641Z,50.97
2018-09-14T02:15:06.711Z,40.63
2018-09-14T02:17:35.466Z,46.53
2018-09-14T02:20:04.257Z,43.30
2018-09-14T02:22:32.906Z,45.57
2018-09-14T02:25:01.545Z,45.67
2018-09-14T02:27:30.305Z,50.20
2018-09-14T02:29:59.090Z,49.13
2018-09-14T02:32:27.889Z,44.97
2018-09-14T02:34:56.646Z,46.23
2018-09-14T02:37:25.327Z,40.83
2018-09-14T02:39:53.986Z,43.00
2018-09-14T02:42:22.618Z,42.27
2018-09-14T02:44:51.640Z,45.27
2018-09-14T02:47:20.377Z,50.40
2018-09-14T02:49:49.021Z,42.00
2018-09-14T02:52:17.677Z,47.60
2018-09-14T02:54:46.510Z,47.43
2018-09-14T02:57:15.205Z,45.60
2018-09-14T02:59:43.914Z,61.00
2018-09-14T03:02:12.609Z,46.23
2018-09-14T03:04:41.310Z,58.03
2018-09-14T03:07:09.986Z,47.47
2018-09-14T03:09:38.777Z,55.67
2018-09-14T03:12:07.521Z,48.33
2018-09-14T03:14:36.167Z,54.23
2018-09-14T03:17:05.046Z,50.60
2018-09-14T03:19:34.550Z,53.20
2018-09-14T03:22:03.373Z,51.77
2018-09-14T03:24:32.020Z,60.73
2018-09-14T03:27:00.673Z,52.67
2018-09-14T03:29:29.417Z,52.07
2018-09-14T03:31:58.081Z,52.37
2018-09-14T03:34:27.237Z,52.27
2018-09-14T03:36:56.006Z,61.00
2018-09-14T03:39:24.958Z,56.93
2018-09-14T03:41:53.659Z,52.87
2018-09-14T03:44:22.327Z,55.70
2018-09-14T03:46:51.474Z,56.40
2018-09-14T03:49:20.213Z,58.80
2018-09-14T03:51:48.924Z,62.20
2018-09-14T03:54:17.728Z,64.97
2018-09-14T03:56:46.500Z,58.30
2018-09-14T03:59:15.197Z,60.13
2018-09-14T04:01:43.974Z,57.83
2018-09-14T04:04:12.609Z,63.10
2018-09-14T04:06:41.302Z,60.47
2018-09-14T04:09:11.263Z,62.20
2018-09-14T04:11:40.227Z,59.70
2018-09-14T04:14:09.148Z,58.87
2018-09-14T04:16:37.816Z,54.23
2018-09-14T04:19:06.643Z,60.90
2018-09-14T04:21:36.718Z,63.53
2018-09-14T04:24:05.606Z,59.27
2018-09-14T04:26:34.321Z,59.90
2018-09-14T04:29:03.009Z,67.37
2018-09-14T04:31:31.700Z,57.97
2018-09-14T04:34:00.490Z,62.87
2018-09-14T04:36:29.309Z,61.87
2018-09-14T04:38:58.097Z,57.43
2018-09-14T04:41:26.939Z,64.67
2018-09-14T04:43:55.651Z,70.80
2018-09-14T04:46:24.286Z,59.80
2018-09-14T04:48:53.090Z,64.17
2018-09-14T04:51:21.978Z,58.70
2018-09-14T04:53:50.595Z,59.00
2018-09-14T04:56:19.517Z,64.20
2018-09-14T04:58:48.262Z,65.20
2018-09-14T05:01:16.999Z,64.73
2018-09-14T05:03:45.632Z,68.97
2018-09-14T05:06:14.287Z,61.30
2018-09-14T05:08:43.025Z,67.40
2018-09-14T05:11:11.802Z,76.00
2018-09-14T05:13:40.531Z,72.00
2018-09-14T05:16:09.249Z,73.60
2018-09-14T05:18:38.051Z,60.53
2018-09-14T05:21:06.894Z,69.03
2018-09-14T05:23:35.671Z,67.73
2018-09-14T05:26:04.467Z,62.03
2018-09-14T05:28:33.170Z,76.67
2018-09-14T05:31:01.846Z,72.70
2018-09-14T05:33:30.741Z,63.70
2018-09-14T05:35:59.424Z,68.70
2018-09-14T05:38:28.247Z,74.83
2018-09-14T05:40:56.914Z,68.63
2018-09-14T05:43:25.642Z,73.00
2018-09-14T05:45:54.600Z,74.30
2018-09-14T05:48:23.266Z,55.30
2018-09-14T05:50:52.138Z,67.27
2018-09-14T05:53:20.861Z,67.27
2018-09-14T05:55:49.550Z,66.90
2018-09-14T05:58:18.220Z,63.97
2018-09-14T06:00:46.893Z,68.43
2018-09-14T06:03:15.695Z,55.97
2018-09-14T06:05:44.797Z,74.80
2018-09-14T06:08:13.522Z,62.70
2018-09-14T06:10:42.177Z,61.30
2018-09-14T06:13:10.944Z,63.20
2018-09-14T06:15:42.660Z,65.73
2018-09-14T06:18:11.481Z,60.50
2018-09-14T06:20:40.149Z,71.23
2018-09-14T06:23:09.174Z,63.50
2018-09-14T06:25:37.763Z,46.20
2018-09-14T06:28:06.530Z,60.03
2018-09-14T06:30:35.337Z,62.80
2018-09-14T06:33:04.098Z,61.00
2018-09-14T06:35:32.794Z,71.17
2018-09-14T06:38:01.483Z,56.63
2018-09-14T06:40:30.205Z,50.53
2018-09-14T06:42:59.298Z,71.10
2018-09-14T06:45:28.106Z,53.20
2018-09-14T06:47:56.837Z,62.63
2018-09-14T06:50:25.546Z,56.20
2018-09-14T06:52:54.205Z,51.33
2018-09-14T06:55:23.031Z,53.93
2018-09-14T06:57:51.778Z,43.13
2018-09-14T07:00:20.730Z,50.60
2018-09-14T07:02:49.284Z,43.27
2018-09-14T07:05:17.989Z,45.00
2018-09-14T07:07:46.772Z,48.17
2018-09-14T07:10:15.645Z,49.23
2018-09-14T07:12:44.353Z,40.83
2018-09-14T07:15:13.091Z,47.73
2018-09-14T07:17:41.829Z,46.97
2018-09-14T07:20:10.814Z,42.97
2018-09-14T07:22:39.682Z,41.73
2018-09-14T07:25:09.326Z,36.73
2018-09-14T07:27:38.176Z,44.63
2018-09-14T07:30:07.229Z,36.33
2018-09-14T07:32:35.934Z,34.90
2018-09-14T07:35:04.662Z,34.60
2018-09-14T07:37:33.302Z,37.47
2018-09-14T07:40:02.083Z,29.23
2018-09-14T07:42:30.960Z,32.83
2018-09-14T07:44:59.946Z,32.30
2018-09-14T07:47:28.607Z,35.37
2018-09-14T07:49:57.261Z,40.57
2018-09-14T07:52:26.001Z,31.53
2018-09-14T07:54:54.763Z,33.60
2018-09-14T07:57:23.534Z,26.30
2018-09-14T07:59:52.206Z,27.03
2018-09-14T08:02:20.883Z,31.87
2018-09-14T08:04:49.562Z,33.43
2018-09-14T08:07:19.034Z,34.50
2018-09-14T08:09:47.782Z,29.23
2018-09-14T08:12:16.467Z,26.93
2018-09-14T08:14:45.183Z,32.83
2018-09-14T08:17:13.893Z,28.50
2018-09-14T08:19:42.638Z,29.43
2018-09-14T08:22:11.779Z,30.63
2018-09-14T08:24:40.783Z,28.00
2018-09-14T08:27:09.593Z,25.67
2018-09-14T08:29:38.657Z,29.37
2018-09-14T08:32:07.509Z,35.40
2018-09-14T08:34:36.344Z,32.60
2018-09-14T08:37:05.057Z,30.83
2018-09-14T08:39:33.922Z,36.63
2018-09-14T08:42:02.588Z,32.20
2018-09-14T08:44:31.367Z,31.97
2018-09-14T08:47:00.085Z,33.07
2018-09-14T08:49:28.849Z,32.37
2018-09-14T08:51:57.853Z,42.97
2018-09-14T08:54:26.666Z,28.73
2018-09-14T08:56:55.520Z,36.53
2018-09-14T08:59:24.209Z,27.57
2018-09-14T09:01:53.124Z,27.63
2018-09-14T09:04:21.915Z,34.73
2018-09-14T09:06:50.585Z,32.27
2018-09-14T09:09:20.353Z,29.33
2018-09-14T09:11:49.085Z,28.97
2018-09-14T09:14:18.197Z,33.73
2018-09-14T09:16:46.843Z,39.67
2018-09-14T09:19:15.551Z,26.83
2018-09-14T09:21:44.359Z,33.40
2018-09-14T09:24:13.494Z,26.57
2018-09-14T09:26:42.319Z,40.60
2018-09-14T09:29:11.002Z,29.20
2018-09-14T09:31:39.753Z,24.73
2018-09-14T09:34:08.421Z,39.90
2018-09-14T09:36:37.701Z,27.80
2018-09-14T09:39:10.085Z,26.17
2018-09-14T09:41:39.385Z,31.40
2018-09-14T09:44:08.325Z,26.30
2018-09-14T09:46:37.269Z,32.70
2018-09-14T09:49:06.206Z,25.13
2018-09-14T09:51:35.033Z,28.87
2018-09-14T09:54:03.842Z,22.53
2018-09-14T09:56:32.689Z,27.53
2018-09-14T09:59:01.495Z,18.67
2018-09-14T10:02:33.161Z,19.87
2018-09-14T10:05:07.156Z,17.60
2018-09-14T10:07:35.885Z,27.70
2018-09-14T10:10:04.874Z,26.33
2018-09-14T10:12:33.632Z,22.20
2018-09-14T10:15:02.538Z,19.40
2018-09-14T10:17:31.350Z,20.07
2018-09-14T10:20:00.098Z,20.33
2018-09-14T10:22:28.839Z,26.13
2018-09-14T10:24:57.567Z,22.13
2018-09-14T10:27:26.209Z,25.43
2018-09-14T10:29:55.066Z,18.63
2018-09-14T10:32:23.859Z,19.90
2018-09-14T10:34:52.671Z,25.47
2018-09-14T10:37:21.672Z,26.50
2018-09-14T10:39:50.506Z,26.30
2018-09-14T10:42:19.248Z,26.13
2018-09-14T10:44:48.013Z,21.57
2018-09-14T10:47:16.837Z,23.93
2018-09-14T10:49:45.765Z,25.10
2018-09-14T10:52:14.698Z,24.80
2018-09-14T10:54:43.494Z,18.37
2018-09-14T10:57:12.483Z,23.03
2018-09-14T10:59:41.690Z,20.47
2018-09-14T11:02:10.580Z,22.53
2018-09-14T11:04:39.609Z,22.77
2018-09-14T11:07:08.407Z,19.30
2018-09-14T11:09:37.132Z,24.07
2018-09-14T11:12:05.938Z,19.50
2018-09-14T11:14:34.718Z,18.37
2018-09-14T11:17:03.521Z,22.93
2018-09-14T11:19:32.298Z,21.43
2018-09-14T11:22:01.044Z,18.47
2018-09-14T11:24:29.910Z,25.00
2018-09-14T11:26:58.673Z,24.00
2018-09-14T11:29:27.400Z,20.03
2018-09-14T11:31:56.259Z,25.33
2018-09-14T11:34:24.987Z,21.33
2018-09-14T11:36:53.809Z,17.43
2018-09-14T11:39:22.504Z,17.53
2018-09-14T11:41:51.137Z,20.80
2018-09-14T11:44:19.902Z,23.17
2018-09-14T11:46:48.769Z,24.83
2018-09-14T11:49:17.578Z,19.87
2018-09-14T11:51:46.498Z,19.33
2018-09-14T11:54:15.507Z,18.17
2018-09-14T11:56:44.223Z,19.00
2018-09-14T11:59:12.905Z,20.13
2018-09-14T12:01:41.825Z,15.90
2018-09-14T12:04:10.671Z,15.60
2018-09-14T12:06:39.407Z,16.93
2018-09-14T12:09:10.624Z,17.93
2018-09-14T12:11:40.045Z,12.90
2018-09-14T12:14:09.231Z,16.93
2018-09-14T12:16:38.115Z,22.00
2018-09-14T12:19:07.109Z,16.10
2018-09-14T12:21:35.774Z,13.30
2018-09-14T12:24:04.459Z,17.87
2018-09-14T12:26:33.299Z,11.83
2018-09-14T12:29:02.069Z,11.60
2018-09-14T12:31:30.726Z,10.17
2018-09-14T12:33:59.470Z,18.93
2018-09-14T12:36:28.418Z,15.37
2018-09-14T12:38:57.352Z,20.00
2018-09-14T12:41:26.126Z,13.40
2018-09-14T12:43:54.841Z,9.67
2018-09-14T12:46:23.718Z,17.23
2018-09-14T12:48:52.365Z,11.00
2018-09-14T12:51:21.123Z,11.93
2018-09-14T12:53:49.892Z,15.37
2018-09-14T12:56:18.713Z,13.60
2018-09-14T12:58:47.432Z,19.90
2018-09-14T13:01:16.974Z,13.67
2018-09-14T13:03:45.742Z,9.13
2018-09-14T13:06:14.450Z,13.00
2018-09-14T13:08:43.161Z,11.07
2018-09-14T13:11:11.955Z,14.20
2018-09-14T13:13:40.770Z,11.30
2018-09-14T13:16:09.801Z,9.20
2018-09-14T13:18:38.497Z,14.57
2018-09-14T13:21:07.292Z,13.57
2018-09-14T13:23:35.974Z,20.67
2018-09-14T13:26:04.739Z,15.20
2018-09-14T13:28:33.539Z,18.20
2018-09-14T13:31:02.204Z,14.53
2018-09-14T13:33:31.128Z,14.17
2018-09-14T13:36:00.051Z,11.10
2018-09-14T13:38:28.765Z,10.40
2018-09-14T13:40:57.598Z,11.73
2018-09-14T13:43:26.360Z,8.40
2018-09-14T13:45:55.142Z,11.90
2018-09-14T13:48:23.875Z,9.83
2018-09-14T13:50:52.634Z,14.63
2018-09-14T13:53:21.443Z,10.63
2018-09-14T13:55:50.119Z,12.63
2018-09-14T13:58:18.742Z,11.73
2018-09-14T14:00:47.557Z,14.80
2018-09-14T14:03:16.257Z,10.33
2018-09-14T14:05:44.973Z,13.90
2018-09-14T14:08:13.662Z,13.37
2018-09-14T14:10:42.662Z,20.23
2018-09-14T14:13:11.311Z,14.87
2018-09-14T14:15:40.151Z,10.13
2018-09-14T14:18:09.173Z,9.20
2018-09-14T14:20:38.280Z,10.00
2018-09-14T14:23:07.569Z,8.43
2018-09-14T14:25:36.351Z,15.80
2018-09-14T14:28:04.977Z,10.30
2018-09-14T14:30:34.223Z,10.90
2018-09-14T14:33:03.114Z,11.97
2018-09-14T14:35:31.869Z,15.60
2018-09-14T14:38:00.522Z,10.93
2018-09-14T14:40:29.178Z,23.90
2018-09-14T14:42:57.921Z,11.60
2018-09-14T14:45:26.690Z,12.70
2018-09-14T14:47:55.430Z,13.67
2018-09-14T14:50:24.153Z,12.70
2018-09-14T14:52:52.866Z,16.43
2018-09-14T14:55:21.558Z,14.63
2018-09-14T14:57:50.299Z,10.70
2018-09-14T15:00:19.058Z,11.27
2018-09-14T15:02:48.037Z,12.60
2018-09-14T15:05:17.036Z,8.60
2018-09-14T15:07:45.924Z,10.17
2018-09-14T15:10:14.585Z,21.07
2018-09-14T15:12:43.421Z,10.53
2018-09-14T15:15:12.243Z,13.80
2018-09-14T15:17:41.142Z,16.20
2018-09-14T15:20:09.857Z,13.57
2018-09-14T15:22:38.640Z,12.10
2018-09-14T15:25:07.571Z,11.40
2018-09-14T15:27:36.257Z,12.60
2018-09-14T15:30:05.035Z,10.70
2018-09-14T15:32:33.727Z,9.23
2018-09-14T15:35:02.491Z,9.50
2018-09-14T15:37:31.354Z,9.33
2018-09-14T15:40:00.114Z,8.90
2018-09-14T15:42:30.126Z,10.67
2018-09-14T15:44:59.097Z,19.53
2018-09-14T15:47:27.773Z,12.50
2018-09-14T15:49:56.453Z,10.90
2018-09-14T15:52:25.558Z,13.60
2018-09-14T15:54:54.716Z,12.90
2018-09-14T15:57:23.557Z,10.77
2018-09-14T15:59:52.325Z,10.70
2018-09-14T16:02:20.985Z,10.50
2018-09-14T16:04:49.840Z,12.73
2018-09-14T16:07:18.514Z,11.10
2018-09-14T16:09:47.463Z,11.40
2018-09-14T16:12:16.165Z,7.87
2018-09-14T16:14:44.842Z,11.80
2018-09-14T16:17:13.642Z,11.63
2018-09-14T16:19:42.316Z,11.93
2018-09-14T16:22:11.142Z,8.30
2018-09-14T16:24:39.798Z,12.40
2018-09-14T16:27:08.609Z,11.60
2018-09-14T16:29:37.369Z,12.83
2018-09-14T16:32:06.189Z,11.83
2018-09-14T16:34:35.299Z,9.90
2018-09-14T16:37:04.100Z,9.20
2018-09-14T16:39:32.845Z,11.87
2018-09-14T16:42:01.499Z,10.43
2018-09-14T16:44:30.214Z,12.63
2018-09-14T16:46:59.041Z,10.77
2018-09-14T16:49:27.723Z,16.27
2018-09-14T16:51:56.929Z,11.10
2018-09-14T16:54:25.918Z,21.93
2018-09-14T16:56:54.575Z,10.33
2018-09-14T16:59:23.416Z,9.87
2018-09-14T17:01:52.159Z,17.50
2018-09-14T17:04:20.817Z,13.00
2018-09-14T17:06:49.868Z,13.43
2018-09-14T17:09:18.685Z,11.47
2018-09-14T17:11:47.746Z,14.57
2018-09-14T17:14:16.514Z,8.00
2018-09-14T17:16:45.193Z,10.73
2018-09-14T17:19:14.117Z,11.33
2018-09-14T17:21:42.772Z,9.83
2018-09-14T17:24:11.494Z,15.63
2018-09-14T17:26:40.222Z,12.80
2018-09-14T17:29:09.239Z,15.00
2018-09-14T17:31:38.048Z,13.37
2018-09-14T17:34:06.730Z,16.33
2018-09-14T17:36:35.405Z,13.40
2018-09-14T17:39:05.118Z,13.27
2018-09-14T17:41:33.794Z,37.43
2018-09-14T17:44:02.656Z,13.20
2018-09-14T17:46:31.363Z,11.30
2018-09-14T17:49:01.003Z,13.73
2018-09-14T17:51:29.672Z,14.73
2018-09-14T17:53:58.364Z,15.93
2018-09-14T17:56:27.290Z,15.17
2018-09-14T17:58:55.971Z,12.53
2018-09-14T18:01:24.865Z,9.83
2018-09-14T18:03:53.610Z,14.20
2018-09-14T18:06:22.314Z,14.83
2018-09-14T18:08:51.022Z,13.93
2018-09-14T18:11:19.671Z,16.10
2018-09-14T18:13:48.701Z,19.10
2018-09-14T18:16:17.392Z,19.63
2018-09-14T18:18:46.149Z,12.13
2018-09-14T18:21:14.857Z,12.50
2018-09-14T18:23:43.507Z,14.97
2018-09-14T18:26:12.345Z,13.20
2018-09-14T18:28:41.095Z,14.33
2018-09-14T18:31:09.934Z,20.93
2018-09-14T18:33:38.605Z,15.80
2018-09-14T18:36:07.546Z,16.53
2018-09-14T18:38:36.340Z,13.13
2018-09-14T18:41:05.296Z,14.57
2018-09-14T18:43:33.968Z,12.80
2018-09-14T18:46:02.658Z,15.80
2018-09-14T18:48:31.354Z,15.43
2018-09-14T18:51:00.234Z,24.53
2018-09-14T18:53:29.194Z,17.53
2018-09-14T18:55:58.110Z,15.67
2018-09-14T18:58:26.923Z,17.07
2018-09-14T19:00:55.686Z,17.30
2018-09-14T19:03:24.528Z,17.37
2018-09-14T19:05:53.288Z,16.43
2018-09-14T19:08:22.471Z,13.60
2018-09-14T19:10:51.192Z,20.00
2018-09-14T19:13:19.923Z,22.83
2018-09-14T19:15:48.822Z,17.10
2018-09-14T19:18:17.509Z,18.93
2018-09-14T19:20:46.247Z,17.47
2018-09-14T19:23:14.989Z,19.43
2018-09-14T19:25:43.649Z,15.73
2018-09-14T19:28:12.481Z,16.83
2018-09-14T19:30:41.362Z,19.93
2018-09-14T19:33:10.186Z,23.20
2018-09-14T19:35:38.952Z,15.90
2018-09-14T19:38:07.676Z,30.17
2018-09-14T19:40:36.426Z,21.27
2018-09-14T19:43:05.102Z,21.67
2018-09-14T19:45:33.782Z,19.53
2018-09-14T19:48:02.497Z,19.93
2018-09-14T19:50:31.247Z,22.30
2018-09-14T19:52:59.946Z,23.10
2018-09-14T19:55:28.626Z,24.00
2018-09-14T19:57:57.326Z,23.47
2018-09-14T20:00:26.179Z,39.77
2018-09-14T20:02:54.888Z,24.40
2018-09-14T20:05:24.020Z,25.47
2018-09-14T20:07:52.794Z,23.30
2018-09-14T20:10:21.473Z,27.57
2018-09-14T20:12:50.158Z,28.53
2018-09-14T20:15:18.967Z,33.83
2018-09-14T20:17:47.662Z,27.80
2018-09-14T20:20:16.357Z,27.87
2018-09-14T20:22:45.034Z,27.10
2018-09-14T20:25:13.722Z,28.60
2018-09-14T20:27:42.386Z,23.17
2018-09-14T20:30:11.094Z,29.97
2018-09-14T20:32:40.082Z,33.03
2018-09-14T20:35:09.018Z,27.07
2018-09-14T20:37:37.960Z,39.27
2018-09-14T20:40:06.772Z,33.37
2018-09-14T20:42:35.653Z,29.60
2018-09-14T20:45:04.535Z,31.63
2018-09-14T20:47:33.743Z,26.37
2018-09-14T20:50:02.728Z,28.03
2018-09-14T20:52:31.502Z,37.63
2018-09-14T20:55:00.319Z,36.77
2018-09-14T20:57:29.097Z,29.60
2018-09-14T20:59:57.877Z,32.77
2018-09-14T21:02:27.018Z,34.00
2018-09-14T21:04:56.086Z,34.80
2018-09-14T21:07:24.802Z,34.33
2018-09-14T21:09:53.855Z,43.03
2018-09-14T21:12:22.531Z,31.80
2018-09-14T21:14:51.353Z,40.10
2018-09-14T21:17:20.074Z,43.30
2018-09-14T21:19:48.902Z,32.83
2018-09-14T21:22:17.788Z,34.87
2018-09-14T21:24:47.393Z,34.37
2018-09-14T21:27:16.191Z,31.83
2018-09-14T21:29:44.987Z,37.37
2018-09-14T21:32:14.001Z,36.97
2018-09-14T21:34:42.756Z,34.03
2018-09-14T21:37:11.489Z,36.03
2018-09-14T21:39:40.312Z,31.80
2018-09-14T21:42:09.019Z,30.50
2018-09-14T21:44:37.950Z,40.70
2018-09-14T21:47:06.921Z,34.07
2018-09-14T21:49:35.579Z,36.80
2018-09-14T21:52:04.302Z,38.43
2018-09-14T21:54:33.057Z,36.50
2018-09-14T21:57:01.775Z,31.00
2018-09-14T21:59:30.582Z,325.50
2018-09-14T22:01:59.258Z,51.17
2018-09-14T22:04:28.039Z,42.63
2018-09-14T22:06:56.910Z,38.33
2018-09-14T22:09:25.836Z,35.37
2018-09-14T22:11:54.487Z,123.93
2018-09-14T22:14:23.172Z,87.83
2018-09-14T22:16:51.895Z,83.47
2018-09-14T22:19:20.545Z,75.23
2018-09-14T22:21:49.927Z,64.23
2018-09-14T22:24:18.781Z,36.57
2018-09-14T22:26:47.557Z,61.40
2018-09-14T22:29:16.248Z,33.47
2018-09-14T22:31:44.923Z,33.37
2018-09-14T22:34:13.930Z,25.10
2018-09-14T22:36:42.828Z,23.17
2018-09-14T22:39:13.017Z,31.57
2018-09-14T22:41:41.702Z,27.97
2018-09-14T22:44:11.203Z,22.70
2018-09-14T22:46:40.033Z,26.70
2018-09-14T22:49:08.793Z,31.07
2018-09-14T22:51:37.819Z,21.77
2018-09-14T22:54:06.566Z,24.50
2018-09-14T22:56:35.223Z,66.63
2018-09-14T22:59:04.186Z,85.20
2018-09-14T23:01:32.988Z,30.70
2018-09-14T23:04:01.710Z,68.77
2018-09-14T23:06:30.387Z,79.13
2018-09-14T23:08:59.095Z,57.90
2018-09-14T23:11:28.046Z,40.30
2018-09-14T23:13:56.801Z,375.03
2018-09-14T23:16:25.578Z,443.63
2018-09-14T23:18:54.241Z,109.23
2018-09-14T23:21:22.895Z,88.73
2018-09-14T23:23:51.861Z,212.23
2018-09-14T23:26:22.759Z,468.57
2018-09-14T23:28:51.481Z,427.03
2018-09-14T23:31:20.170Z,230.27
2018-09-14T23:33:49.643Z,293.87
2018-09-14T23:36:18.753Z,142.80
2018-09-14T23:38:47.472Z,273.63
2018-09-14T23:41:16.561Z,99.03
2018-09-14T23:43:45.215Z,40.13
2018-09-14T23:46:13.861Z,33.67
2018-09-14T23:48:42.621Z,69.87
2018-09-14T23:51:11.390Z,26.13
2018-09-14T23:53:40.308Z,36.83
2018-09-14T23:56:09.077Z,39.50
2018-09-14T23:58:37.826Z,37.37
